createdAt,value
2019-01-31T00:00:52.369Z,-1.40
2019-01-31T00:04:13.740Z,-1.50
2019-01-31T00:07:07.814Z,-1.50
2019-01-31T00:10:00.360Z,-1.60
2019-01-31T00:13:11.902Z,-1.70
2019-01-31T00:16:17.100Z,-1.70
2019-01-31T00:18:58.017Z,-1.80
2019-01-31T00:22:11.761Z,-1.80
2019-01-31T00:25:24.705Z,-1.80
2019-01-31T00:28:30.124Z,-1.80
2019-01-31T00:31:27.116Z,-1.80
2019-01-31T00:34:20.006Z,-1.90
2019-01-31T00:37:29.860Z,-1.90
2019-01-31T00:40:34.513Z,-1.90
2019-01-31T00:43:57.254Z,-2.10
2019-01-31T00:47:06.541Z,-2.10
2019-01-31T00:49:44.715Z,-2.20
2019-01-31T00:52:35.741Z,-2.10
2019-01-31T00:55:33.782Z,-2.20
2019-01-31T00:58:51.438Z,-2.30
2019-01-31T01:01:48.051Z,-2.30
2019-01-31T01:04:46.990Z,-2.30
2019-01-31T01:08:01.649Z,-2.40
2019-01-31T01:11:14.302Z,-2.50
2019-01-31T01:13:59.223Z,-2.60
2019-01-31T01:16:37.320Z,-2.70
2019-01-31T01:20:00.419Z,-2.80
2019-01-31T01:23:02.739Z,-2.90
2019-01-31T01:25:58.337Z,-2.90
2019-01-31T01:28:46.523Z,-3.00
2019-01-31T01:31:54.889Z,-3.10
2019-01-31T01:34:39.883Z,-3.10
2019-01-31T01:37:38.576Z,-3.20
2019-01-31T01:40:41.356Z,-3.20
2019-01-31T01:43:27.968Z,-3.20
2019-01-31T01:46:36.922Z,-3.30
2019-01-31T01:49:22.165Z,-3.30
2019-01-31T01:52:14.814Z,-3.30
2019-01-31T01:54:58.513Z,-3.40
2019-01-31T01:58:10.805Z,-3.40
2019-01-31T02:01:20.354Z,-3.40
2019-01-31T02:04:08.970Z,-3.40
2019-01-31T02:06:57.076Z,-3.50
2019-01-31T02:10:02.335Z,-3.50
2019-01-31T02:13:09.686Z,-3.40
2019-01-31T02:16:12.504Z,-3.40
2019-01-31T02:18:49.672Z,-3.40
2019-01-31T02:21:50.224Z,-3.40
2019-01-31T02:24:54.816Z,-3.40
2019-01-31T02:28:16.691Z,-3.40
2019-01-31T02:31:23.225Z,-3.40
2019-01-31T02:34:36.291Z,-3.50
2019-01-31T02:37:47.767Z,-3.50
2019-01-31T02:40:55.895Z,-3.50
2019-01-31T02:44:04.386Z,-3.60
2019-01-31T02:47:22.801Z,-3.60
2019-01-31T02:50:29.205Z,-3.70
2019-01-31T02:53:38.996Z,-3.70
2019-01-31T02:56:50.767Z,-3.70
2019-01-31T02:59:41.902Z,-3.60
2019-01-31T03:02:32.640Z,-3.70
2019-01-31T03:05:27.573Z,-3.60
2019-01-31T03:08:45.255Z,-3.70
2019-01-31T03:11:46.591Z,-3.60
2019-01-31T03:14:26.318Z,-3.70
2019-01-31T03:17:34.534Z,-3.70
2019-01-31T03:20:19.643Z,-3.80
2019-01-31T03:23:40.107Z,-3.90
2019-01-31T03:26:52.364Z,-4.00
2019-01-31T03:30:14.935Z,-4.10
2019-01-31T03:33:04.649Z,-4.10
2019-01-31T03:36:22.904Z,-4.20
2019-01-31T03:39:22.745Z,-4.20
2019-01-31T03:42:12.776Z,-4.30
2019-01-31T03:45:31.933Z,-4.30
2019-01-31T03:48:41.361Z,-4.40
2019-01-31T03:51:44.451Z,-4.30
2019-01-31T03:54:59.690Z,-4.40
2019-01-31T03:57:45.760Z,-4.40
2019-01-31T04:00:58.417Z,-4.50
2019-01-31T04:03:47.044Z,-4.50
2019-01-31T04:06:23.433Z,-4.50
2019-01-31T04:08:51.167Z,-4.50
2019-01-31T04:11:19.028Z,-4.50
2019-01-31T04:13:46.961Z,-4.50
2019-01-31T04:16:14.361Z,-4.50
2019-01-31T04:18:41.818Z,-4.60
2019-01-31T04:21:09.550Z,-4.60
2019-01-31T04:23:37.044Z,-4.60
2019-01-31T04:26:08.485Z,-4.60
2019-01-31T04:28:36.574Z,-4.70
2019-01-31T04:31:04.196Z,-4.70
2019-01-31T04:33:31.804Z,-4.70
2019-01-31T04:35:59.516Z,-4.70
2019-01-31T04:38:27.101Z,-4.80
2019-01-31T04:40:54.599Z,-4.80
2019-01-31T04:43:22.204Z,-4.70
2019-01-31T04:45:49.848Z,-4.80
2019-01-31T04:48:17.425Z,-4.80
2019-01-31T04:50:44.917Z,-4.80
2019-01-31T04:53:12.324Z,-4.80
2019-01-31T04:55:41.479Z,-4.90
2019-01-31T04:58:09.061Z,-4.90
2019-01-31T05:00:36.528Z,-4.90
2019-01-31T05:03:04.302Z,-4.90
2019-01-31T05:05:31.996Z,-4.90
2019-01-31T05:07:59.546Z,-5.00
2019-01-31T05:10:27.204Z,-5.00
2019-01-31T05:12:54.579Z,-4.90
2019-01-31T05:15:22.585Z,-4.90
2019-01-31T05:17:50.050Z,-5.00
2019-01-31T05:20:17.959Z,-5.00
2019-01-31T05:22:46.184Z,-5.00
2019-01-31T05:25:14.539Z,-5.00
2019-01-31T05:27:42.501Z,-5.00
2019-01-31T05:30:11.749Z,-5.00
2019-01-31T05:32:39.397Z,-5.00
2019-01-31T05:35:08.167Z,-5.00
2019-01-31T05:37:35.770Z,-5.00
2019-01-31T05:40:04.990Z,-5.00
2019-01-31T05:42:32.939Z,-5.00
2019-01-31T05:45:00.495Z,-5.00
2019-01-31T05:47:27.925Z,-4.90
2019-01-31T05:49:55.700Z,-4.90
2019-01-31T05:52:23.747Z,-4.90
2019-01-31T05:54:51.792Z,-4.80
2019-01-31T05:57:19.332Z,-4.70
2019-01-31T05:59:47.110Z,-4.60
2019-01-31T06:02:14.691Z,-4.50
2019-01-31T06:04:42.170Z,-4.50
2019-01-31T06:07:11.123Z,-4.40
2019-01-31T06:09:38.862Z,-4.30
2019-01-31T06:12:06.504Z,-4.30
2019-01-31T06:14:40.575Z,-4.20
2019-01-31T06:17:08.937Z,-4.10
2019-01-31T06:19:36.553Z,-4.00
2019-01-31T06:22:04.176Z,-3.90
2019-01-31T06:24:31.673Z,-3.80
2019-01-31T06:26:59.552Z,-3.70
2019-01-31T06:29:27.449Z,-3.60
2019-01-31T06:31:54.924Z,-3.50
2019-01-31T06:34:22.458Z,-3.50
2019-01-31T06:36:49.932Z,-3.40
2019-01-31T06:39:20.112Z,-3.30
2019-01-31T06:41:46.959Z,-3.20
2019-01-31T06:44:16.275Z,-3.20
2019-01-31T06:46:43.842Z,-3.20
2019-01-31T06:49:11.914Z,-3.10
2019-01-31T06:51:39.412Z,-3.00
2019-01-31T06:54:07.998Z,-2.90
2019-01-31T06:56:35.478Z,-2.90
2019-01-31T06:59:03.428Z,-2.80
2019-01-31T07:01:31.177Z,-2.80
2019-01-31T07:03:58.984Z,-2.70
2019-01-31T07:06:27.623Z,-2.70
2019-01-31T07:08:55.139Z,-2.60
2019-01-31T07:11:29.572Z,-2.60
2019-01-31T07:13:51.955Z,-2.40
2019-01-31T07:16:19.822Z,-2.40
2019-01-31T07:18:47.287Z,-2.30
2019-01-31T07:21:14.848Z,-2.30
2019-01-31T07:23:42.420Z,-2.30
2019-01-31T07:26:09.899Z,-2.20
2019-01-31T07:28:37.272Z,-2.20
2019-01-31T07:31:04.773Z,-2.10
2019-01-31T07:33:32.291Z,-2.00
2019-01-31T07:35:59.646Z,-2.00
2019-01-31T07:38:27.106Z,-1.90
2019-01-31T07:40:54.657Z,-1.90
2019-01-31T07:43:22.523Z,-1.80
2019-01-31T07:45:49.987Z,-1.80
2019-01-31T07:48:17.688Z,-1.80
2019-01-31T07:50:45.058Z,-1.70
2019-01-31T07:53:12.937Z,-1.70
2019-01-31T07:55:40.684Z,-1.70
2019-01-31T07:58:08.247Z,-1.60
2019-01-31T08:00:35.997Z,-1.60
2019-01-31T08:03:03.817Z,-1.60
2019-01-31T08:05:31.778Z,-1.50
2019-01-31T08:07:59.250Z,-1.50
2019-01-31T08:10:35.510Z,-1.50
2019-01-31T08:13:03.579Z,-1.50
2019-01-31T08:15:32.282Z,-1.50
2019-01-31T08:18:00.077Z,-1.40
2019-01-31T08:20:27.644Z,-1.40
2019-01-31T08:22:55.263Z,-1.40
2019-01-31T08:25:23.691Z,-1.40
2019-01-31T08:27:52.352Z,-1.30
2019-01-31T08:30:22.480Z,-1.40
2019-01-31T08:32:50.413Z,-1.30
2019-01-31T08:35:18.180Z,-1.30
2019-01-31T08:37:45.636Z,-1.20
2019-01-31T08:40:13.495Z,-1.20
2019-01-31T08:42:41.001Z,-1.10
2019-01-31T08:45:10.481Z,-1.10
2019-01-31T08:47:39.074Z,-1.00
2019-01-31T08:50:09.847Z,-1.00
2019-01-31T08:52:37.271Z,-0.90
2019-01-31T08:55:05.684Z,-0.90
2019-01-31T08:57:33.589Z,-0.80
2019-01-31T09:00:00.987Z,-0.80
2019-01-31T09:02:28.553Z,-0.70
2019-01-31T09:04:56.069Z,-0.70
2019-01-31T09:07:23.479Z,-0.70
2019-01-31T09:09:51.032Z,-0.50
2019-01-31T09:12:18.494Z,-0.50
2019-01-31T09:14:46.030Z,-0.40
2019-01-31T09:17:13.644Z,-0.40
2019-01-31T09:19:41.225Z,-0.30
2019-01-31T09:22:45.946Z,-0.30
2019-01-31T09:26:01.510Z,-0.20
2019-01-31T09:29:03.869Z,-0.20
2019-01-31T09:31:57.331Z,-0.10
2019-01-31T09:34:46.162Z,-0.10
2019-01-31T09:38:00.943Z,0.00
2019-01-31T09:40:53.919Z,0.00
2019-01-31T09:43:58.709Z,0.00
2019-01-31T09:46:54.564Z,0.10
2019-01-31T09:50:11.646Z,0.10
2019-01-31T09:53:38.931Z,0.20
2019-01-31T09:56:26.793Z,0.20
2019-01-31T09:59:26.471Z,0.30
2019-01-31T10:02:30.648Z,0.40
2019-01-31T10:05:45.991Z,0.40
2019-01-31T10:08:57.791Z,0.40
2019-01-31T10:12:23.602Z,0.40
2019-01-31T10:14:59.632Z,0.50
2019-01-31T10:18:06.374Z,0.60
2019-01-31T10:21:09.546Z,0.60
2019-01-31T10:23:58.534Z,0.70
2019-01-31T10:26:42.430Z,0.70
2019-01-31T10:29:54.722Z,0.60
2019-01-31T10:32:44.007Z,0.60
2019-01-31T10:35:56.929Z,0.70
2019-01-31T10:38:57.012Z,0.70
2019-01-31T10:41:51.348Z,0.80
2019-01-31T10:44:56.842Z,0.80
2019-01-31T10:47:52.106Z,0.80
2019-01-31T10:50:54.237Z,0.80
2019-01-31T10:53:35.755Z,0.80
2019-01-31T10:56:48.070Z,0.90
2019-01-31T10:59:47.091Z,0.90
2019-01-31T11:03:02.482Z,0.90
2019-01-31T11:06:06.714Z,1.00
2019-01-31T11:09:19.599Z,1.00
2019-01-31T11:12:21.040Z,1.10
2019-01-31T11:15:20.640Z,1.00
2019-01-31T11:18:02.951Z,1.00
2019-01-31T11:21:27.570Z,1.00
2019-01-31T11:24:40.075Z,1.10
2019-01-31T11:27:38.390Z,1.10
2019-01-31T11:30:35.620Z,1.00
2019-01-31T11:33:36.110Z,1.00
2019-01-31T11:36:29.419Z,1.00
2019-01-31T11:39:48.016Z,1.00
2019-01-31T11:42:59.613Z,1.10
2019-01-31T11:46:17.869Z,1.10
2019-01-31T11:48:58.835Z,1.10
2019-01-31T11:52:32.322Z,1.10
2019-01-31T11:55:16.674Z,1.10
2019-01-31T11:58:22.930Z,1.20
2019-01-31T12:00:53.046Z,1.20
2019-01-31T12:03:20.309Z,1.20
2019-01-31T12:05:47.915Z,1.20
2019-01-31T12:08:15.437Z,1.30
2019-01-31T12:10:43.351Z,1.30
2019-01-31T12:13:10.813Z,1.30
2019-01-31T12:15:38.639Z,1.30
2019-01-31T12:18:07.059Z,1.30
2019-01-31T12:20:34.531Z,1.30
2019-01-31T12:23:02.106Z,1.30
2019-01-31T12:25:29.459Z,1.40
2019-01-31T12:27:56.945Z,1.40
2019-01-31T12:30:26.481Z,1.40
2019-01-31T12:32:54.066Z,1.40
2019-01-31T12:35:21.660Z,1.40
2019-01-31T12:37:49.794Z,1.50
2019-01-31T12:40:17.451Z,1.50
2019-01-31T12:42:45.066Z,1.50
2019-01-31T12:45:14.559Z,1.50
2019-01-31T12:47:42.059Z,1.50
2019-01-31T12:50:12.784Z,1.50
2019-01-31T12:52:40.264Z,1.50
2019-01-31T12:55:08.147Z,1.50
2019-01-31T12:57:35.663Z,1.50
2019-01-31T13:00:06.101Z,1.60
2019-01-31T13:02:35.075Z,1.60
2019-01-31T13:05:02.995Z,1.60
2019-01-31T13:07:31.556Z,1.60
2019-01-31T13:10:01.131Z,1.60
2019-01-31T13:12:28.883Z,1.70
2019-01-31T13:14:56.546Z,1.70
2019-01-31T13:17:23.946Z,1.60
2019-01-31T13:19:52.521Z,1.70
2019-01-31T13:22:19.982Z,1.70
2019-01-31T13:24:48.015Z,1.70
2019-01-31T13:27:15.520Z,1.70
2019-01-31T13:29:43.132Z,1.70
2019-01-31T13:32:10.661Z,1.70
2019-01-31T13:34:38.084Z,1.70
2019-01-31T13:37:06.786Z,1.70
2019-01-31T13:39:34.597Z,1.70
2019-01-31T13:42:01.973Z,1.70
2019-01-31T13:44:30.447Z,1.70
2019-01-31T13:46:58.274Z,1.70
2019-01-31T13:49:26.138Z,1.70
2019-01-31T13:51:55.080Z,1.70
2019-01-31T13:54:22.587Z,1.70
2019-01-31T13:56:50.182Z,1.80
2019-01-31T13:59:17.653Z,1.90
2019-01-31T14:01:45.527Z,1.90
2019-01-31T14:04:13.036Z,2.00
2019-01-31T14:06:40.915Z,2.10
2019-01-31T14:09:08.720Z,2.10
2019-01-31T14:11:37.511Z,2.10
2019-01-31T14:14:09.090Z,2.10
2019-01-31T14:16:34.894Z,2.10
2019-01-31T14:19:02.296Z,2.10
2019-01-31T14:21:29.894Z,2.10
2019-01-31T14:23:57.647Z,2.20
2019-01-31T14:26:25.053Z,2.10
2019-01-31T14:28:52.499Z,2.10
2019-01-31T14:31:19.996Z,2.10
2019-01-31T14:33:47.559Z,2.10
2019-01-31T14:36:15.041Z,2.10
2019-01-31T14:38:43.615Z,2.10
2019-01-31T14:41:11.332Z,2.10
2019-01-31T14:43:38.795Z,2.10
2019-01-31T14:46:06.402Z,2.10
2019-01-31T14:48:33.879Z,2.10
2019-01-31T14:51:01.365Z,2.10
2019-01-31T14:53:28.962Z,2.20
2019-01-31T14:55:57.549Z,2.20
2019-01-31T14:58:24.999Z,2.20
2019-01-31T15:00:52.461Z,2.10
2019-01-31T15:03:19.990Z,2.20
2019-01-31T15:05:47.495Z,2.10
2019-01-31T15:08:15.041Z,2.10
2019-01-31T15:10:42.475Z,2.10
2019-01-31T15:13:09.985Z,2.10
2019-01-31T15:15:37.311Z,2.00
2019-01-31T15:18:06.402Z,2.00
2019-01-31T15:20:39.193Z,2.00
2019-01-31T15:23:06.773Z,1.90
2019-01-31T15:25:34.203Z,1.90
2019-01-31T15:28:01.685Z,1.90
2019-01-31T15:30:31.822Z,1.90
2019-01-31T15:33:00.195Z,1.90
2019-01-31T15:35:27.769Z,1.80
2019-01-31T15:37:55.386Z,1.80
2019-01-31T15:40:26.946Z,1.70
2019-01-31T15:42:54.430Z,1.70
2019-01-31T15:45:22.145Z,1.60
2019-01-31T15:47:49.672Z,1.60
2019-01-31T15:50:17.373Z,1.50
2019-01-31T15:52:44.986Z,1.50
2019-01-31T15:55:13.867Z,1.40
2019-01-31T15:57:41.514Z,1.40
2019-01-31T16:00:18.136Z,1.30
2019-01-31T16:02:45.698Z,1.30
2019-01-31T16:05:18.988Z,1.30
2019-01-31T16:07:42.842Z,1.20
2019-01-31T16:10:10.555Z,1.10
2019-01-31T16:12:38.128Z,1.10
2019-01-31T16:15:07.110Z,1.10
2019-01-31T16:17:34.799Z,1.10
2019-01-31T16:20:02.446Z,1.10
2019-01-31T16:22:30.834Z,1.10
2019-01-31T16:24:58.355Z,1.10
2019-01-31T16:27:25.916Z,1.00
2019-01-31T16:29:54.433Z,1.00
2019-01-31T16:32:21.972Z,1.00
2019-01-31T16:34:49.363Z,1.00
2019-01-31T16:37:16.709Z,1.00
2019-01-31T16:39:44.211Z,1.00
2019-01-31T16:42:11.675Z,1.00
2019-01-31T16:44:39.172Z,0.90
2019-01-31T16:47:06.614Z,0.90
2019-01-31T16:49:34.406Z,0.90
2019-01-31T16:52:01.885Z,0.90
2019-01-31T16:54:29.371Z,0.90
2019-01-31T16:56:56.819Z,0.90
2019-01-31T16:59:24.317Z,0.80
2019-01-31T17:01:52.171Z,0.80
2019-01-31T17:04:19.645Z,0.80
2019-01-31T17:06:47.071Z,0.80
2019-01-31T17:09:15.489Z,0.70
2019-01-31T17:11:42.926Z,0.70
2019-01-31T17:14:10.402Z,0.70
2019-01-31T17:16:37.937Z,0.70
2019-01-31T17:19:05.389Z,0.70
2019-01-31T17:21:32.882Z,0.70
2019-01-31T17:24:00.365Z,0.70
2019-01-31T17:26:28.243Z,0.70
2019-01-31T17:28:55.567Z,0.60
2019-01-31T17:31:23.079Z,0.60
2019-01-31T17:33:50.481Z,0.60
2019-01-31T17:36:17.841Z,0.60
2019-01-31T17:38:45.499Z,0.60
2019-01-31T17:41:12.953Z,0.60
2019-01-31T17:43:41.491Z,0.60
2019-01-31T17:46:10.098Z,0.60
2019-01-31T17:48:37.548Z,0.50
2019-01-31T17:51:05.299Z,0.50
2019-01-31T17:53:32.899Z,0.50
2019-01-31T17:56:00.232Z,0.50
2019-01-31T17:58:27.765Z,0.50
2019-01-31T18:00:56.943Z,0.50
2019-01-31T18:03:24.763Z,0.50
2019-01-31T18:05:52.238Z,0.50
2019-01-31T18:08:19.719Z,0.50
2019-01-31T18:10:48.045Z,0.50
2019-01-31T18:13:15.877Z,0.50
2019-01-31T18:15:43.450Z,0.50
2019-01-31T18:18:10.826Z,0.50
2019-01-31T18:20:38.172Z,0.50
2019-01-31T18:23:05.615Z,0.50
2019-01-31T18:25:33.383Z,0.50
2019-01-31T18:28:00.840Z,0.50
2019-01-31T18:30:29.352Z,0.40
2019-01-31T18:32:56.800Z,0.40
2019-01-31T18:35:24.307Z,0.40
2019-01-31T18:37:51.762Z,0.40
2019-01-31T18:40:24.281Z,0.40
2019-01-31T18:42:53.004Z,0.40
2019-01-31T18:45:25.746Z,0.40
2019-01-31T18:47:53.239Z,0.40
2019-01-31T18:50:26.118Z,0.50
2019-01-31T18:52:54.212Z,0.50
2019-01-31T18:55:21.669Z,0.40
2019-01-31T18:57:49.113Z,0.40
2019-01-31T19:00:23.272Z,0.50
2019-01-31T19:02:51.390Z,0.50
2019-01-31T19:05:20.255Z,0.50
2019-01-31T19:07:47.779Z,0.50
2019-01-31T19:10:15.664Z,0.60
2019-01-31T19:12:44.225Z,0.50
2019-01-31T19:15:13.074Z,0.60
2019-01-31T19:17:40.733Z,0.60
2019-01-31T19:20:22.447Z,0.60
2019-01-31T19:22:50.219Z,0.60
2019-01-31T19:25:18.142Z,0.60
2019-01-31T19:27:47.034Z,0.60
2019-01-31T19:30:22.391Z,0.60
2019-01-31T19:32:49.723Z,0.60
2019-01-31T19:35:17.261Z,0.60
2019-01-31T19:37:44.721Z,0.60
2019-01-31T19:40:15.193Z,0.70
2019-01-31T19:42:42.759Z,0.70
2019-01-31T19:45:15.271Z,0.70
2019-01-31T19:47:42.791Z,0.70
2019-01-31T19:50:10.382Z,0.70
2019-01-31T19:52:37.979Z,0.70
2019-01-31T19:55:05.555Z,0.70
2019-01-31T19:57:34.961Z,0.80
2019-01-31T20:00:04.312Z,0.70
2019-01-31T20:02:31.934Z,0.70
2019-01-31T20:04:59.513Z,0.80
2019-01-31T20:07:27.117Z,0.80
2019-01-31T20:09:54.667Z,0.80
2019-01-31T20:12:22.219Z,0.80
2019-01-31T20:14:49.689Z,0.80
2019-01-31T20:17:17.118Z,0.80
2019-01-31T20:19:44.622Z,0.80
2019-01-31T20:22:12.387Z,0.80
2019-01-31T20:24:40.290Z,0.80
2019-01-31T20:27:07.798Z,0.80
2019-01-31T20:29:35.360Z,0.90
2019-01-31T20:32:03.474Z,0.80
2019-01-31T20:34:31.156Z,0.80
2019-01-31T20:36:58.779Z,0.90
2019-01-31T20:39:26.289Z,0.90
2019-01-31T20:41:54.665Z,0.90
2019-01-31T20:44:22.440Z,0.90
2019-01-31T20:46:50.085Z,0.90
2019-01-31T20:49:17.937Z,1.00
2019-01-31T20:51:45.450Z,0.90
2019-01-31T20:54:13.151Z,1.00
2019-01-31T20:56:40.883Z,1.00
2019-01-31T20:59:08.385Z,1.00
2019-01-31T21:01:35.900Z,1.00
2019-01-31T21:04:03.341Z,1.00
2019-01-31T21:06:41.179Z,1.00
2019-01-31T21:09:00.258Z,1.10
2019-01-31T21:11:27.768Z,1.10
2019-01-31T21:13:55.217Z,1.10
2019-01-31T21:16:22.899Z,1.10
2019-01-31T21:18:50.642Z,1.10
2019-01-31T21:21:18.124Z,1.10
2019-01-31T21:23:45.570Z,1.10
2019-01-31T21:26:13.803Z,1.10
2019-01-31T21:28:41.359Z,1.10
2019-01-31T21:31:08.814Z,1.10
2019-01-31T21:33:36.347Z,1.10
2019-01-31T21:36:03.780Z,1.10
2019-01-31T21:38:31.250Z,1.10
2019-01-31T21:40:58.736Z,1.10
2019-01-31T21:43:26.227Z,1.10
2019-01-31T21:45:53.647Z,1.10
2019-01-31T21:48:21.349Z,1.10
2019-01-31T21:50:48.745Z,1.10
2019-01-31T21:53:17.372Z,1.10
2019-01-31T21:55:44.846Z,1.10
2019-01-31T21:58:12.347Z,1.10
2019-01-31T22:00:39.892Z,1.10
2019-01-31T22:03:07.761Z,1.10
2019-01-31T22:05:35.226Z,1.10
2019-01-31T22:08:03.038Z,1.10
2019-01-31T22:10:30.746Z,1.10
2019-01-31T22:12:58.190Z,1.10
2019-01-31T22:15:27.589Z,1.10
2019-01-31T22:17:58.063Z,1.20
2019-01-31T22:20:24.865Z,1.20
2019-01-31T22:22:53.371Z,1.20
2019-01-31T22:25:21.389Z,1.20
2019-01-31T22:27:49.271Z,1.20
2019-01-31T22:30:22.693Z,1.20
2019-01-31T22:32:50.223Z,1.20
2019-01-31T22:35:18.023Z,1.20
2019-01-31T22:37:45.510Z,1.20
2019-01-31T22:40:13.601Z,1.30
2019-01-31T22:42:40.892Z,1.20
2019-01-31T22:45:10.691Z,1.30
2019-01-31T22:47:38.213Z,1.30
2019-01-31T22:50:07.994Z,1.30
2019-01-31T22:52:35.471Z,1.20
2019-01-31T22:55:04.663Z,1.30
2019-01-31T22:57:32.078Z,1.30
2019-01-31T22:59:59.546Z,1.30
2019-01-31T23:02:27.497Z,1.30
2019-01-31T23:04:54.947Z,1.30
2019-01-31T23:07:22.537Z,1.30
2019-01-31T23:09:50.006Z,1.30
2019-01-31T23:12:17.451Z,1.30
2019-01-31T23:14:44.939Z,1.30
2019-01-31T23:17:12.611Z,1.30
2019-01-31T23:19:40.115Z,1.40
2019-01-31T23:22:07.626Z,1.40
2019-01-31T23:24:35.322Z,1.40
2019-01-31T23:27:02.807Z,1.40
2019-01-31T23:29:30.721Z,1.40
2019-01-31T23:31:58.314Z,1.40
2019-01-31T23:34:25.793Z,1.40
2019-01-31T23:36:53.296Z,1.40
2019-01-31T23:39:20.784Z,1.40
2019-01-31T23:41:48.661Z,1.50
2019-01-31T23:44:16.021Z,1.50
2019-01-31T23:46:43.538Z,1.40
2019-01-31T23:49:11.005Z,1.40
2019-01-31T23:51:38.524Z,1.50
2019-01-31T23:54:06.359Z,1.50
2019-01-31T23:56:33.850Z,1.50
2019-01-31T23:59:01.373Z,1.50
